sensor_id;sensor_type;location;lat;lon;timestamp;temperature;humidity
43607;DHT22;29197;44.788;10.366;2023-03-23T00:02:40;15.40;99.90
43607;DHT22;29197;44.788;10.366;2023-03-23T00:05:27;15.10;99.90
43607;DHT22;29197;44.788;10.366;2023-03-23T00:08:16;15.00;99.90
43607;DHT22;29197;44.788;10.366;2023-03-23T00:11:05;14.80;99.90
43607;DHT22;29197;44.788;10.366;2023-03-23T00:13:53;14.80;99.90
43607;DHT22;29197;44.788;10.366;2023-03-23T00:16:40;14.80;99.90
43607;DHT22;29197;44.788;10.366;2023-03-23T00:19:28;15.00;99.90
43607;DHT22;29197;44.788;10.366;2023-03-23T00:22:17;15.40;99.90
43607;DHT22;29197;44.788;10.366;2023-03-23T00:25:07;15.50;99.90
43607;DHT22;29197;44.788;10.366;2023-03-23T00:27:56;15.80;99.90
43607;DHT22;29197;44.788;10.366;2023-03-23T00:30:44;15.70;99.90
43607;DHT22;29197;44.788;10.366;2023-03-23T00:33:33;15.50;99.90
43607;DHT22;29197;44.788;10.366;2023-03-23T00:36:24;15.60;99.90
43607;DHT22;29197;44.788;10.366;2023-03-23T00:39:13;15.70;99.90
43607;DHT22;29197;44.788;10.366;2023-03-23T00:42:02;15.90;99.90
43607;DHT22;29197;44.788;10.366;2023-03-23T00:44:52;16.00;99.90
43607;DHT22;29197;44.788;10.366;2023-03-23T00:47:46;16.10;99.90
43607;DHT22;29197;44.788;10.366;2023-03-23T00:50:37;16.20;99.90
43607;DHT22;29197;44.788;10.366;2023-03-23T00:53:24;16.30;99.90
43607;DHT22;29197;44.788;10.366;2023-03-23T00:56:12;16.30;99.90
43607;DHT22;29197;44.788;10.366;2023-03-23T00:58:59;16.20;99.90
43607;DHT22;29197;44.788;10.366;2023-03-23T01:01:49;16.20;99.90
43607;DHT22;29197;44.788;10.366;2023-03-23T01:04:38;16.20;99.90
43607;DHT22;29197;44.788;10.366;2023-03-23T01:07:26;16.30;99.90
43607;DHT22;29197;44.788;10.366;2023-03-23T01:10:15;16.30;99.90
43607;DHT22;29197;44.788;10.366;2023-03-23T01:13:03;16.30;99.90
43607;DHT22;29197;44.788;10.366;2023-03-23T01:15:51;16.20;99.90
43607;DHT22;29197;44.788;10.366;2023-03-23T01:18:40;16.10;99.90
43607;DHT22;29197;44.788;10.366;2023-03-23T01:21:28;16.10;99.90
43607;DHT22;29197;44.788;10.366;2023-03-23T01:24:15;16.10;99.90
43607;DHT22;29197;44.788;10.366;2023-03-23T01:27:03;16.00;99.90
43607;DHT22;29197;44.788;10.366;2023-03-23T01:29:52;16.00;99.90
43607;DHT22;29197;44.788;10.366;2023-03-23T01:32:40;15.90;99.90
43607;DHT22;29197;44.788;10.366;2023-03-23T01:35:28;15.90;99.90
43607;DHT22;29197;44.788;10.366;2023-03-23T01:38:16;15.90;99.90
43607;DHT22;29197;44.788;10.366;2023-03-23T01:41:04;15.90;99.90
43607;DHT22;29197;44.788;10.366;2023-03-23T01:44:00;15.90;99.90
43607;DHT22;29197;44.788;10.366;2023-03-23T01:46:48;15.90;99.90
43607;DHT22;29197;44.788;10.366;2023-03-23T01:49:37;15.80;99.90
43607;DHT22;29197;44.788;10.366;2023-03-23T01:52:28;15.70;99.90
43607;DHT22;29197;44.788;10.366;2023-03-23T01:55:16;15.50;99.90
43607;DHT22;29197;44.788;10.366;2023-03-23T01:58:03;15.40;99.90
43607;DHT22;29197;44.788;10.366;2023-03-23T02:00:52;15.10;99.90
43607;DHT22;29197;44.788;10.366;2023-03-23T02:03:44;15.00;99.90
43607;DHT22;29197;44.788;10.366;2023-03-23T02:06:34;15.00;99.90
43607;DHT22;29197;44.788;10.366;2023-03-23T02:12:11;14.80;99.90
43607;DHT22;29197;44.788;10.366;2023-03-23T02:14:58;14.00;99.90
43607;DHT22;29197;44.788;10.366;2023-03-23T02:17:50;13.70;99.90
43607;DHT22;29197;44.788;10.366;2023-03-23T02:24:20;13.80;99.90
43607;DHT22;29197;44.788;10.366;2023-03-23T02:27:16;13.80;99.90
43607;DHT22;29197;44.788;10.366;2023-03-23T02:30:12;13.70;99.90
43607;DHT22;29197;44.788;10.366;2023-03-23T02:33:22;13.70;99.90
43607;DHT22;29197;44.788;10.366;2023-03-23T02:36:18;13.80;99.90
43607;DHT22;29197;44.788;10.366;2023-03-23T02:39:10;13.50;99.90
43607;DHT22;29197;44.788;10.366;2023-03-23T02:42:00;13.60;99.90
43607;DHT22;29197;44.788;10.366;2023-03-23T02:44:50;13.30;99.90
43607;DHT22;29197;44.788;10.366;2023-03-23T02:47:40;13.40;99.90
43607;DHT22;29197;44.788;10.366;2023-03-23T02:50:31;13.60;99.90
43607;DHT22;29197;44.788;10.366;2023-03-23T02:53:23;13.70;99.90
43607;DHT22;29197;44.788;10.366;2023-03-23T02:56:12;14.00;99.90
43607;DHT22;29197;44.788;10.366;2023-03-23T02:59:01;14.00;99.90
43607;DHT22;29197;44.788;10.366;2023-03-23T03:01:53;14.30;99.90
43607;DHT22;29197;44.788;10.366;2023-03-23T03:04:46;14.60;99.90
43607;DHT22;29197;44.788;10.366;2023-03-23T03:07:50;14.70;99.90
43607;DHT22;29197;44.788;10.366;2023-03-23T03:10:46;14.80;99.90
43607;DHT22;29197;44.788;10.366;2023-03-23T03:13:45;14.90;99.90
43607;DHT22;29197;44.788;10.366;2023-03-23T03:16:36;14.90;99.90
43607;DHT22;29197;44.788;10.366;2023-03-23T03:19:28;14.60;99.90
43607;DHT22;29197;44.788;10.366;2023-03-23T03:22:17;14.70;99.90
43607;DHT22;29197;44.788;10.366;2023-03-23T03:25:09;14.50;99.90
43607;DHT22;29197;44.788;10.366;2023-03-23T03:27:59;14.40;99.90
43607;DHT22;29197;44.788;10.366;2023-03-23T03:30:51;14.60;99.90
43607;DHT22;29197;44.788;10.366;2023-03-23T03:33:41;14.80;99.90
43607;DHT22;29197;44.788;10.366;2023-03-23T03:36:31;15.00;99.90
43607;DHT22;29197;44.788;10.366;2023-03-23T03:39:20;15.10;99.90
43607;DHT22;29197;44.788;10.366;2023-03-23T03:42:09;15.10;99.90
43607;DHT22;29197;44.788;10.366;2023-03-23T03:44:57;15.20;99.90
43607;DHT22;29197;44.788;10.366;2023-03-23T03:47:44;15.20;99.90
43607;DHT22;29197;44.788;10.366;2023-03-23T03:50:32;15.20;99.90
43607;DHT22;29197;44.788;10.366;2023-03-23T03:53:19;15.20;99.90
43607;DHT22;29197;44.788;10.366;2023-03-23T03:56:07;15.20;99.90
43607;DHT22;29197;44.788;10.366;2023-03-23T03:58:56;15.30;99.90
43607;DHT22;29197;44.788;10.366;2023-03-23T04:01:43;15.20;99.90
43607;DHT22;29197;44.788;10.366;2023-03-23T04:04:30;14.90;99.90
43607;DHT22;29197;44.788;10.366;2023-03-23T04:07:18;14.80;99.90
43607;DHT22;29197;44.788;10.366;2023-03-23T04:10:08;14.70;99.90
43607;DHT22;29197;44.788;10.366;2023-03-23T04:12:57;14.60;99.90
43607;DHT22;29197;44.788;10.366;2023-03-23T04:15:46;14.70;99.90
43607;DHT22;29197;44.788;10.366;2023-03-23T04:18:34;14.60;99.90
43607;DHT22;29197;44.788;10.366;2023-03-23T04:21:22;14.60;99.90
43607;DHT22;29197;44.788;10.366;2023-03-23T04:24:09;14.70;99.90
43607;DHT22;29197;44.788;10.366;2023-03-23T04:26:57;14.70;99.90
43607;DHT22;29197;44.788;10.366;2023-03-23T04:29:45;14.70;99.90
43607;DHT22;29197;44.788;10.366;2023-03-23T04:32:36;14.60;99.90
43607;DHT22;29197;44.788;10.366;2023-03-23T04:35:27;14.60;99.90
43607;DHT22;29197;44.788;10.366;2023-03-23T04:38:16;14.60;99.90
43607;DHT22;29197;44.788;10.366;2023-03-23T04:41:06;14.70;99.90
43607;DHT22;29197;44.788;10.366;2023-03-23T04:43:53;14.70;99.90
43607;DHT22;29197;44.788;10.366;2023-03-23T04:46:43;14.90;99.90
43607;DHT22;29197;44.788;10.366;2023-03-23T04:49:32;14.90;99.90
43607;DHT22;29197;44.788;10.366;2023-03-23T04:52:20;14.90;99.90
43607;DHT22;29197;44.788;10.366;2023-03-23T04:55:08;15.00;99.90
43607;DHT22;29197;44.788;10.366;2023-03-23T04:57:56;15.00;99.90
43607;DHT22;29197;44.788;10.366;2023-03-23T05:00:46;14.60;99.90
43607;DHT22;29197;44.788;10.366;2023-03-23T05:03:35;14.50;99.90
43607;DHT22;29197;44.788;10.366;2023-03-23T05:06:24;14.70;99.90
43607;DHT22;29197;44.788;10.366;2023-03-23T05:09:12;14.90;99.90
43607;DHT22;29197;44.788;10.366;2023-03-23T05:12:03;15.00;99.90
43607;DHT22;29197;44.788;10.366;2023-03-23T05:14:51;15.10;99.90
43607;DHT22;29197;44.788;10.366;2023-03-23T05:17:39;15.20;99.90
43607;DHT22;29197;44.788;10.366;2023-03-23T05:20:29;15.30;99.90
43607;DHT22;29197;44.788;10.366;2023-03-23T05:23:18;15.30;99.90
43607;DHT22;29197;44.788;10.366;2023-03-23T05:26:06;15.10;99.90
43607;DHT22;29197;44.788;10.366;2023-03-23T05:28:54;15.10;99.90
43607;DHT22;29197;44.788;10.366;2023-03-23T05:31:42;15.20;99.90
43607;DHT22;29197;44.788;10.366;2023-03-23T05:34:30;15.30;99.90
43607;DHT22;29197;44.788;10.366;2023-03-23T05:37:18;15.30;99.90
43607;DHT22;29197;44.788;10.366;2023-03-23T05:40:08;15.20;99.90
43607;DHT22;29197;44.788;10.366;2023-03-23T05:42:57;15.00;99.90
43607;DHT22;29197;44.788;10.366;2023-03-23T05:45:46;15.10;99.90
43607;DHT22;29197;44.788;10.366;2023-03-23T05:48:34;15.10;99.90
43607;DHT22;29197;44.788;10.366;2023-03-23T05:51:22;15.00;99.90
43607;DHT22;29197;44.788;10.366;2023-03-23T05:54:10;15.00;99.90
43607;DHT22;29197;44.788;10.366;2023-03-23T05:56:58;14.80;99.90
43607;DHT22;29197;44.788;10.366;2023-03-23T05:59:46;14.40;99.90
43607;DHT22;29197;44.788;10.366;2023-03-23T06:02:33;14.40;99.90
43607;DHT22;29197;44.788;10.366;2023-03-23T06:05:20;14.20;99.90
43607;DHT22;29197;44.788;10.366;2023-03-23T06:08:08;13.70;99.90
43607;DHT22;29197;44.788;10.366;2023-03-23T06:10:55;14.00;99.90
43607;DHT22;29197;44.788;10.366;2023-03-23T06:13:44;14.00;99.90
43607;DHT22;29197;44.788;10.366;2023-03-23T06:16:31;13.80;99.90
43607;DHT22;29197;44.788;10.366;2023-03-23T06:19:19;13.90;99.90
43607;DHT22;29197;44.788;10.366;2023-03-23T06:22:06;14.00;99.90
43607;DHT22;29197;44.788;10.366;2023-03-23T06:24:54;13.90;99.90
43607;DHT22;29197;44.788;10.366;2023-03-23T06:27:43;14.00;99.90
43607;DHT22;29197;44.788;10.366;2023-03-23T06:30:33;14.20;99.90
43607;DHT22;29197;44.788;10.366;2023-03-23T06:33:20;14.20;99.90
43607;DHT22;29197;44.788;10.366;2023-03-23T06:36:08;14.40;99.90
43607;DHT22;29197;44.788;10.366;2023-03-23T06:38:58;14.60;99.90
43607;DHT22;29197;44.788;10.366;2023-03-23T06:41:45;14.20;99.90
43607;DHT22;29197;44.788;10.366;2023-03-23T06:44:32;14.10;99.90
43607;DHT22;29197;44.788;10.366;2023-03-23T06:47:21;14.00;99.90
43607;DHT22;29197;44.788;10.366;2023-03-23T06:50:09;14.30;99.90
43607;DHT22;29197;44.788;10.366;2023-03-23T06:52:57;14.60;99.90
43607;DHT22;29197;44.788;10.366;2023-03-23T06:55:44;14.70;99.90
43607;DHT22;29197;44.788;10.366;2023-03-23T06:58:32;14.80;99.90
43607;DHT22;29197;44.788;10.366;2023-03-23T07:01:19;15.00;99.90
43607;DHT22;29197;44.788;10.366;2023-03-23T07:04:08;15.20;99.90
43607;DHT22;29197;44.788;10.366;2023-03-23T07:06:56;15.00;99.90
43607;DHT22;29197;44.788;10.366;2023-03-23T07:09:44;15.10;99.90
43607;DHT22;29197;44.788;10.366;2023-03-23T07:12:31;15.00;99.90
43607;DHT22;29197;44.788;10.366;2023-03-23T07:15:19;15.20;99.90
43607;DHT22;29197;44.788;10.366;2023-03-23T07:18:06;15.40;99.90
43607;DHT22;29197;44.788;10.366;2023-03-23T07:20:55;15.30;99.90
43607;DHT22;29197;44.788;10.366;2023-03-23T07:23:42;15.30;99.90
43607;DHT22;29197;44.788;10.366;2023-03-23T07:26:32;15.30;99.90
43607;DHT22;29197;44.788;10.366;2023-03-23T07:29:19;15.20;99.90
43607;DHT22;29197;44.788;10.366;2023-03-23T07:32:10;15.30;99.90
43607;DHT22;29197;44.788;10.366;2023-03-23T07:34:58;15.50;99.90
43607;DHT22;29197;44.788;10.366;2023-03-23T07:37:47;15.70;99.90
43607;DHT22;29197;44.788;10.366;2023-03-23T07:40:35;15.90;99.90
43607;DHT22;29197;44.788;10.366;2023-03-23T07:43:23;15.90;99.90
43607;DHT22;29197;44.788;10.366;2023-03-23T07:46:10;16.10;99.90
43607;DHT22;29197;44.788;10.366;2023-03-23T07:48:58;16.20;99.90
43607;DHT22;29197;44.788;10.366;2023-03-23T07:51:46;16.40;99.90
43607;DHT22;29197;44.788;10.366;2023-03-23T07:54:35;16.50;99.90
43607;DHT22;29197;44.788;10.366;2023-03-23T07:57:22;16.60;99.90
43607;DHT22;29197;44.788;10.366;2023-03-23T08:00:11;16.70;99.90
43607;DHT22;29197;44.788;10.366;2023-03-23T08:03:01;16.90;99.90
43607;DHT22;29197;44.788;10.366;2023-03-23T08:05:48;17.00;99.90
43607;DHT22;29197;44.788;10.366;2023-03-23T08:08:36;17.10;99.90
43607;DHT22;29197;44.788;10.366;2023-03-23T08:11:25;17.10;99.90
43607;DHT22;29197;44.788;10.366;2023-03-23T08:14:12;17.20;99.90
43607;DHT22;29197;44.788;10.366;2023-03-23T08:16:59;17.30;99.90
43607;DHT22;29197;44.788;10.366;2023-03-23T08:19:47;17.30;99.90
43607;DHT22;29197;44.788;10.366;2023-03-23T08:22:39;17.40;99.90
43607;DHT22;29197;44.788;10.366;2023-03-23T08:25:29;17.50;99.90
43607;DHT22;29197;44.788;10.366;2023-03-23T08:28:18;17.70;99.90
43607;DHT22;29197;44.788;10.366;2023-03-23T08:31:07;17.90;99.90
43607;DHT22;29197;44.788;10.366;2023-03-23T08:33:56;18.10;99.90
43607;DHT22;29197;44.788;10.366;2023-03-23T08:36:43;18.20;99.90
43607;DHT22;29197;44.788;10.366;2023-03-23T08:39:32;18.80;99.90
43607;DHT22;29197;44.788;10.366;2023-03-23T08:42:19;18.40;99.90
43607;DHT22;29197;44.788;10.366;2023-03-23T08:45:11;18.30;99.90
43607;DHT22;29197;44.788;10.366;2023-03-23T08:47:58;18.30;99.90
43607;DHT22;29197;44.788;10.366;2023-03-23T08:50:46;18.30;99.90
43607;DHT22;29197;44.788;10.366;2023-03-23T08:53:33;18.30;99.90
43607;DHT22;29197;44.788;10.366;2023-03-23T08:56:22;18.30;99.90
43607;DHT22;29197;44.788;10.366;2023-03-23T08:59:10;18.40;99.90
43607;DHT22;29197;44.788;10.366;2023-03-23T09:01:58;18.40;99.90
43607;DHT22;29197;44.788;10.366;2023-03-23T09:04:46;18.40;99.90
43607;DHT22;29197;44.788;10.366;2023-03-23T09:07:35;18.50;99.90
43607;DHT22;29197;44.788;10.366;2023-03-23T09:10:22;18.50;99.90
43607;DHT22;29197;44.788;10.366;2023-03-23T09:13:10;18.60;99.90
43607;DHT22;29197;44.788;10.366;2023-03-23T09:15:57;18.80;99.90
43607;DHT22;29197;44.788;10.366;2023-03-23T09:18:46;19.00;99.90
43607;DHT22;29197;44.788;10.366;2023-03-23T09:21:36;19.10;99.90
43607;DHT22;29197;44.788;10.366;2023-03-23T09:24:23;19.10;99.90
43607;DHT22;29197;44.788;10.366;2023-03-23T09:27:11;19.00;99.90
43607;DHT22;29197;44.788;10.366;2023-03-23T09:29:58;19.00;99.90
43607;DHT22;29197;44.788;10.366;2023-03-23T09:32:47;18.80;99.90
43607;DHT22;29197;44.788;10.366;2023-03-23T09:35:36;18.80;99.90
43607;DHT22;29197;44.788;10.366;2023-03-23T09:38:24;18.80;99.90
43607;DHT22;29197;44.788;10.366;2023-03-23T09:41:26;18.80;99.90
43607;DHT22;29197;44.788;10.366;2023-03-23T09:44:24;18.80;99.90
43607;DHT22;29197;44.788;10.366;2023-03-23T09:47:19;18.80;99.90
43607;DHT22;29197;44.788;10.366;2023-03-23T09:50:11;19.10;99.90
43607;DHT22;29197;44.788;10.366;2023-03-23T09:53:08;19.40;99.90
43607;DHT22;29197;44.788;10.366;2023-03-23T09:55:57;19.70;99.90
43607;DHT22;29197;44.788;10.366;2023-03-23T09:58:48;19.70;99.90
43607;DHT22;29197;44.788;10.366;2023-03-23T10:01:41;19.70;99.90
43607;DHT22;29197;44.788;10.366;2023-03-23T10:04:38;19.70;99.90
43607;DHT22;29197;44.788;10.366;2023-03-23T10:07:26;19.70;99.90
43607;DHT22;29197;44.788;10.366;2023-03-23T10:10:16;19.70;99.90
43607;DHT22;29197;44.788;10.366;2023-03-23T10:13:09;19.80;99.90
43607;DHT22;29197;44.788;10.366;2023-03-23T10:16:03;19.80;99.90
43607;DHT22;29197;44.788;10.366;2023-03-23T10:18:56;19.70;99.90
43607;DHT22;29197;44.788;10.366;2023-03-23T10:21:49;19.60;99.90
43607;DHT22;29197;44.788;10.366;2023-03-23T10:24:42;19.60;99.90
43607;DHT22;29197;44.788;10.366;2023-03-23T10:27:35;19.70;99.90
43607;DHT22;29197;44.788;10.366;2023-03-23T10:30:29;19.80;99.90
43607;DHT22;29197;44.788;10.366;2023-03-23T10:33:22;19.90;99.90
43607;DHT22;29197;44.788;10.366;2023-03-23T10:39:05;20.20;99.90
43607;DHT22;29197;44.788;10.366;2023-03-23T10:41:53;20.40;99.90
43607;DHT22;29197;44.788;10.366;2023-03-23T10:44:42;20.60;99.90
43607;DHT22;29197;44.788;10.366;2023-03-23T10:47:30;20.80;99.90
43607;DHT22;29197;44.788;10.366;2023-03-23T10:50:23;20.90;99.90
43607;DHT22;29197;44.788;10.366;2023-03-23T10:53:15;21.10;99.90
43607;DHT22;29197;44.788;10.366;2023-03-23T10:56:05;21.00;99.90
43607;DHT22;29197;44.788;10.366;2023-03-23T10:58:53;21.10;99.90
43607;DHT22;29197;44.788;10.366;2023-03-23T11:01:45;21.40;99.90
43607;DHT22;29197;44.788;10.366;2023-03-23T11:04:34;21.50;99.90
43607;DHT22;29197;44.788;10.366;2023-03-23T11:07:27;21.50;99.90
43607;DHT22;29197;44.788;10.366;2023-03-23T11:10:20;21.30;99.90
43607;DHT22;29197;44.788;10.366;2023-03-23T11:13:13;21.20;99.90
43607;DHT22;29197;44.788;10.366;2023-03-23T11:16:00;21.30;99.90
43607;DHT22;29197;44.788;10.366;2023-03-23T11:18:49;21.60;99.90
43607;DHT22;29197;44.788;10.366;2023-03-23T11:21:38;21.60;99.90
43607;DHT22;29197;44.788;10.366;2023-03-23T11:24:27;21.50;99.90
43607;DHT22;29197;44.788;10.366;2023-03-23T11:27:15;21.40;99.90
43607;DHT22;29197;44.788;10.366;2023-03-23T11:30:09;21.40;99.90
43607;DHT22;29197;44.788;10.366;2023-03-23T11:33:00;21.40;99.90
43607;DHT22;29197;44.788;10.366;2023-03-23T11:35:52;21.60;99.90
43607;DHT22;29197;44.788;10.366;2023-03-23T11:38:42;21.50;99.90
43607;DHT22;29197;44.788;10.366;2023-03-23T11:41:33;21.40;99.90
43607;DHT22;29197;44.788;10.366;2023-03-23T11:44:22;21.40;99.90
43607;DHT22;29197;44.788;10.366;2023-03-23T11:47:17;21.10;99.90
43607;DHT22;29197;44.788;10.366;2023-03-23T11:50:12;21.20;99.90
43607;DHT22;29197;44.788;10.366;2023-03-23T11:53:12;21.30;99.90
43607;DHT22;29197;44.788;10.366;2023-03-23T11:56:09;21.60;99.90
43607;DHT22;29197;44.788;10.366;2023-03-23T11:58:58;21.80;99.90
43607;DHT22;29197;44.788;10.366;2023-03-23T12:01:53;22.10;99.90
43607;DHT22;29197;44.788;10.366;2023-03-23T12:05:26;22.50;99.90
43607;DHT22;29197;44.788;10.366;2023-03-23T12:08:49;22.90;99.90
43607;DHT22;29197;44.788;10.366;2023-03-23T12:12:03;23.60;99.90
43607;DHT22;29197;44.788;10.366;2023-03-23T12:14:58;23.80;99.90
43607;DHT22;29197;44.788;10.366;2023-03-23T12:17:54;24.10;99.90
43607;DHT22;29197;44.788;10.366;2023-03-23T12:20:52;24.50;99.90
43607;DHT22;29197;44.788;10.366;2023-03-23T12:23:45;24.90;99.90
43607;DHT22;29197;44.788;10.366;2023-03-23T12:26:38;25.20;99.90
43607;DHT22;29197;44.788;10.366;2023-03-23T12:29:38;25.50;99.90
43607;DHT22;29197;44.788;10.366;2023-03-23T12:32:50;25.70;99.90
43607;DHT22;29197;44.788;10.366;2023-03-23T12:35:49;25.90;99.90
43607;DHT22;29197;44.788;10.366;2023-03-23T12:39:05;26.00;99.90
43607;DHT22;29197;44.788;10.366;2023-03-23T12:42:01;26.00;99.90
43607;DHT22;29197;44.788;10.366;2023-03-23T12:44:52;25.80;99.80
43607;DHT22;29197;44.788;10.366;2023-03-23T12:47:42;25.70;99.90
43607;DHT22;29197;44.788;10.366;2023-03-23T12:50:33;25.60;98.00
43607;DHT22;29197;44.788;10.366;2023-03-23T12:53:25;25.40;98.60
43607;DHT22;29197;44.788;10.366;2023-03-23T12:56:16;25.50;99.90
43607;DHT22;29197;44.788;10.366;2023-03-23T12:59:11;25.70;99.90
43607;DHT22;29197;44.788;10.366;2023-03-23T13:04:59;26.10;99.10
43607;DHT22;29197;44.788;10.366;2023-03-23T13:07:51;26.20;99.60
43607;DHT22;29197;44.788;10.366;2023-03-23T13:10:42;26.30;99.90
43607;DHT22;29197;44.788;10.366;2023-03-23T13:13:43;26.30;99.50
43607;DHT22;29197;44.788;10.366;2023-03-23T13:16:39;26.20;99.10
43607;DHT22;29197;44.788;10.366;2023-03-23T13:19:32;26.10;99.30
43607;DHT22;29197;44.788;10.366;2023-03-23T13:22:27;26.10;99.60
43607;DHT22;29197;44.788;10.366;2023-03-23T13:25:24;26.10;98.90
43607;DHT22;29197;44.788;10.366;2023-03-23T13:28:17;26.10;99.40
43607;DHT22;29197;44.788;10.366;2023-03-23T13:31:13;26.30;98.60
43607;DHT22;29197;44.788;10.366;2023-03-23T13:34:05;26.30;98.60
43607;DHT22;29197;44.788;10.366;2023-03-23T13:36:54;26.20;99.20
43607;DHT22;29197;44.788;10.366;2023-03-23T13:39:49;26.10;99.00
43607;DHT22;29197;44.788;10.366;2023-03-23T13:42:48;26.10;99.40
43607;DHT22;29197;44.788;10.366;2023-03-23T13:45:42;26.30;98.60
43607;DHT22;29197;44.788;10.366;2023-03-23T13:48:40;26.20;98.70
43607;DHT22;29197;44.788;10.366;2023-03-23T13:51:36;26.20;98.20
43607;DHT22;29197;44.788;10.366;2023-03-23T13:54:30;26.30;98.50
43607;DHT22;29197;44.788;10.366;2023-03-23T13:57:32;26.30;98.60
43607;DHT22;29197;44.788;10.366;2023-03-23T14:00:44;26.20;98.80
43607;DHT22;29197;44.788;10.366;2023-03-23T14:03:36;26.20;98.60
43607;DHT22;29197;44.788;10.366;2023-03-23T14:06:23;26.20;98.70
43607;DHT22;29197;44.788;10.366;2023-03-23T14:09:19;27.20;98.90
43607;DHT22;29197;44.788;10.366;2023-03-23T14:12:15;26.20;98.50
43607;DHT22;29197;44.788;10.366;2023-03-23T14:15:05;26.20;98.40
43607;DHT22;29197;44.788;10.366;2023-03-23T14:17:52;26.20;98.40
43607;DHT22;29197;44.788;10.366;2023-03-23T14:20:40;26.20;98.30
43607;DHT22;29197;44.788;10.366;2023-03-23T14:23:31;26.10;97.90
43607;DHT22;29197;44.788;10.366;2023-03-23T14:26:20;26.10;98.40
43607;DHT22;29197;44.788;10.366;2023-03-23T14:29:10;26.00;98.10
43607;DHT22;29197;44.788;10.366;2023-03-23T14:31:58;25.90;98.10
43607;DHT22;29197;44.788;10.366;2023-03-23T14:34:47;25.80;98.40
43607;DHT22;29197;44.788;10.366;2023-03-23T14:37:36;25.80;98.30
43607;DHT22;29197;44.788;10.366;2023-03-23T14:40:27;25.70;98.70
43607;DHT22;29197;44.788;10.366;2023-03-23T14:43:18;25.60;99.20
43607;DHT22;29197;44.788;10.366;2023-03-23T14:46:08;25.50;98.70
43607;DHT22;29197;44.788;10.366;2023-03-23T14:49:00;25.20;98.30
43607;DHT22;29197;44.788;10.366;2023-03-23T14:51:49;25.20;98.30
43607;DHT22;29197;44.788;10.366;2023-03-23T14:54:37;25.30;97.70
43607;DHT22;29197;44.788;10.366;2023-03-23T14:57:29;25.00;97.90
43607;DHT22;29197;44.788;10.366;2023-03-23T15:00:22;24.90;99.30
43607;DHT22;29197;44.788;10.366;2023-03-23T15:03:12;24.70;98.90
43607;DHT22;29197;44.788;10.366;2023-03-23T15:06:04;24.70;98.70
43607;DHT22;29197;44.788;10.366;2023-03-23T15:08:55;24.60;99.80
43607;DHT22;29197;44.788;10.366;2023-03-23T15:11:49;24.10;99.30
43607;DHT22;29197;44.788;10.366;2023-03-23T15:14:44;24.00;99.90
43607;DHT22;29197;44.788;10.366;2023-03-23T15:17:36;24.10;99.90
43607;DHT22;29197;44.788;10.366;2023-03-23T15:20:26;24.10;99.90
43607;DHT22;29197;44.788;10.366;2023-03-23T15:23:17;24.00;99.70
43607;DHT22;29197;44.788;10.366;2023-03-23T15:26:06;23.80;99.80
43607;DHT22;29197;44.788;10.366;2023-03-23T15:29:11;23.60;99.90
43607;DHT22;29197;44.788;10.366;2023-03-23T15:31:59;23.60;99.90
43607;DHT22;29197;44.788;10.366;2023-03-23T15:34:51;23.70;99.90
43607;DHT22;29197;44.788;10.366;2023-03-23T15:37:42;23.70;99.90
43607;DHT22;29197;44.788;10.366;2023-03-23T15:40:34;23.70;99.90
43607;DHT22;29197;44.788;10.366;2023-03-23T15:43:25;23.60;99.90
43607;DHT22;29197;44.788;10.366;2023-03-23T15:46:21;23.50;99.90
43607;DHT22;29197;44.788;10.366;2023-03-23T15:49:10;23.50;99.90
43607;DHT22;29197;44.788;10.366;2023-03-23T15:52:01;23.40;99.90
43607;DHT22;29197;44.788;10.366;2023-03-23T15:54:48;23.40;99.90
43607;DHT22;29197;44.788;10.366;2023-03-23T15:57:36;23.20;99.90
43607;DHT22;29197;44.788;10.366;2023-03-23T16:00:25;23.20;99.90
43607;DHT22;29197;44.788;10.366;2023-03-23T16:03:20;23.10;99.90
43607;DHT22;29197;44.788;10.366;2023-03-23T16:06:11;23.10;99.90
43607;DHT22;29197;44.788;10.366;2023-03-23T16:09:15;22.90;99.90
43607;DHT22;29197;44.788;10.366;2023-03-23T16:12:04;22.80;99.90
43607;DHT22;29197;44.788;10.366;2023-03-23T16:14:52;22.70;99.90
43607;DHT22;29197;44.788;10.366;2023-03-23T16:17:41;22.70;99.90
43607;DHT22;29197;44.788;10.366;2023-03-23T16:20:30;22.80;99.90
43607;DHT22;29197;44.788;10.366;2023-03-23T16:23:19;22.60;99.90
43607;DHT22;29197;44.788;10.366;2023-03-23T16:26:09;22.40;99.90
43607;DHT22;29197;44.788;10.366;2023-03-23T16:28:58;22.30;99.90
43607;DHT22;29197;44.788;10.366;2023-03-23T16:32:03;22.10;99.90
43607;DHT22;29197;44.788;10.366;2023-03-23T16:34:52;22.00;99.90
43607;DHT22;29197;44.788;10.366;2023-03-23T16:37:43;21.90;99.90
43607;DHT22;29197;44.788;10.366;2023-03-23T16:40:32;21.80;99.90
43607;DHT22;29197;44.788;10.366;2023-03-23T16:43:22;21.70;99.90
43607;DHT22;29197;44.788;10.366;2023-03-23T16:46:11;21.60;99.90
43607;DHT22;29197;44.788;10.366;2023-03-23T16:49:00;21.60;99.90
43607;DHT22;29197;44.788;10.366;2023-03-23T16:51:49;21.70;99.90
43607;DHT22;29197;44.788;10.366;2023-03-23T16:54:38;21.60;99.90
43607;DHT22;29197;44.788;10.366;2023-03-23T16:57:26;21.50;99.90
43607;DHT22;29197;44.788;10.366;2023-03-23T17:00:18;21.30;99.90
43607;DHT22;29197;44.788;10.366;2023-03-23T17:03:08;21.30;99.90
43607;DHT22;29197;44.788;10.366;2023-03-23T17:05:58;21.30;99.90
43607;DHT22;29197;44.788;10.366;2023-03-23T17:08:47;21.20;99.90
43607;DHT22;29197;44.788;10.366;2023-03-23T17:11:36;21.10;99.90
43607;DHT22;29197;44.788;10.366;2023-03-23T17:14:24;21.10;99.90
43607;DHT22;29197;44.788;10.366;2023-03-23T17:17:14;21.10;99.90
43607;DHT22;29197;44.788;10.366;2023-03-23T17:20:04;21.10;99.90
43607;DHT22;29197;44.788;10.366;2023-03-23T17:22:52;21.10;99.90
43607;DHT22;29197;44.788;10.366;2023-03-23T17:25:43;21.00;99.90
43607;DHT22;29197;44.788;10.366;2023-03-23T17:28:32;19.70;99.90
43607;DHT22;29197;44.788;10.366;2023-03-23T17:31:20;21.00;99.90
43607;DHT22;29197;44.788;10.366;2023-03-23T17:34:10;21.00;99.90
43607;DHT22;29197;44.788;10.366;2023-03-23T17:36:59;21.00;99.90
43607;DHT22;29197;44.788;10.366;2023-03-23T17:39:47;20.90;99.90
43607;DHT22;29197;44.788;10.366;2023-03-23T17:42:36;20.80;99.90
43607;DHT22;29197;44.788;10.366;2023-03-23T17:45:24;20.80;99.90
43607;DHT22;29197;44.788;10.366;2023-03-23T17:48:13;20.80;99.90
43607;DHT22;29197;44.788;10.366;2023-03-23T17:51:03;20.60;99.90
43607;DHT22;29197;44.788;10.366;2023-03-23T17:53:52;20.60;99.90